sensor_id;sensor_type;location;lat;lon;timestamp;pressure;altitude;pressure_sealevel;temperature;humidity
62124;BME280;48110;47.532;19.078;2023-04-01T00:00:15;99009.94;;;9.65;100.00
62124;BME280;48110;47.532;19.078;2023-04-01T00:03:20;98999.59;;;9.70;100.00
62124;BME280;48110;47.532;19.078;2023-04-01T00:06:26;99002.78;;;9.59;100.00
62124;BME280;48110;47.532;19.078;2023-04-01T00:09:30;99001.50;;;9.48;100.00
62124;BME280;48110;47.532;19.078;2023-04-01T00:12:34;99005.53;;;9.44;100.00
62124;BME280;48110;47.532;19.078;2023-04-01T00:15:41;99007.59;;;9.49;100.00
62124;BME280;48110;47.532;19.078;2023-04-01T00:18:46;99010.81;;;9.44;100.00
62124;BME280;48110;47.532;19.078;2023-04-01T00:21:57;99004.28;;;9.40;100.00
62124;BME280;48110;47.532;19.078;2023-04-01T00:25:05;99005.22;;;9.26;100.00
62124;BME280;48110;47.532;19.078;2023-04-01T00:28:11;98998.44;;;9.17;100.00
62124;BME280;48110;47.532;19.078;2023-04-01T00:31:16;98998.19;;;9.12;100.00
62124;BME280;48110;47.532;19.078;2023-04-01T00:34:28;98999.34;;;9.03;100.00
62124;BME280;48110;47.532;19.078;2023-04-01T00:37:36;99001.72;;;8.98;100.00
62124;BME280;48110;47.532;19.078;2023-04-01T00:40:44;98999.84;;;8.92;100.00
62124;BME280;48110;47.532;19.078;2023-04-01T00:43:50;98985.31;;;8.81;100.00
62124;BME280;48110;47.532;19.078;2023-04-01T00:47:00;98990.66;;;8.88;100.00
62124;BME280;48110;47.532;19.078;2023-04-01T00:50:09;98995.00;;;8.95;100.00
62124;BME280;48110;47.532;19.078;2023-04-01T00:53:18;98994.44;;;9.00;100.00
62124;BME280;48110;47.532;19.078;2023-04-01T00:56:27;98984.63;;;8.94;100.00
62124;BME280;48110;47.532;19.078;2023-04-01T00:59:40;98986.69;;;8.98;100.00
62124;BME280;48110;47.532;19.078;2023-04-01T01:02:49;98984.97;;;9.12;100.00
62124;BME280;48110;47.532;19.078;2023-04-01T01:09:34;98976.34;;;9.31;100.00
62124;BME280;48110;47.532;19.078;2023-04-01T01:16:00;98978.25;;;9.44;100.00
62124;BME280;48110;47.532;19.078;2023-04-01T01:36:04;98974.88;;;9.56;100.00
62124;BME280;48110;47.532;19.078;2023-04-01T01:39:16;98975.69;;;9.57;100.00
62124;BME280;48110;47.532;19.078;2023-04-01T01:42:24;98972.28;;;9.63;100.00
62124;BME280;48110;47.532;19.078;2023-04-01T01:45:35;98977.34;;;9.58;100.00
62124;BME280;48110;47.532;19.078;2023-04-01T01:48:44;98978.13;;;9.58;100.00
62124;BME280;48110;47.532;19.078;2023-04-01T01:51:53;98980.75;;;9.52;100.00
62124;BME280;48110;47.532;19.078;2023-04-01T01:55:01;98975.62;;;9.44;100.00
62124;BME280;48110;47.532;19.078;2023-04-01T02:01:23;98975.34;;;9.32;100.00
62124;BME280;48110;47.532;19.078;2023-04-01T02:04:31;98981.22;;;9.28;100.00
62124;BME280;48110;47.532;19.078;2023-04-01T02:07:38;98972.41;;;9.21;100.00
62124;BME280;48110;47.532;19.078;2023-04-01T02:10:57;98967.50;;;9.18;100.00
62124;BME280;48110;47.532;19.078;2023-04-01T02:14:09;98965.69;;;9.25;100.00
62124;BME280;48110;47.532;19.078;2023-04-01T02:17:23;98959.63;;;9.31;100.00
62124;BME280;48110;47.532;19.078;2023-04-01T02:20:34;98967.31;;;9.53;100.00
62124;BME280;48110;47.532;19.078;2023-04-01T02:23:43;98960.72;;;9.77;100.00
62124;BME280;48110;47.532;19.078;2023-04-01T02:26:52;98956.25;;;9.84;100.00
62124;BME280;48110;47.532;19.078;2023-04-01T02:30:02;98959.94;;;9.90;100.00
62124;BME280;48110;47.532;19.078;2023-04-01T02:33:10;98954.00;;;9.81;100.00
62124;BME280;48110;47.532;19.078;2023-04-01T02:36:20;98953.44;;;9.92;100.00
62124;BME280;48110;47.532;19.078;2023-04-01T02:39:30;98951.38;;;9.88;100.00
62124;BME280;48110;47.532;19.078;2023-04-01T02:42:37;98951.50;;;9.73;100.00
62124;BME280;48110;47.532;19.078;2023-04-01T02:45:48;98952.34;;;9.74;100.00
62124;BME280;48110;47.532;19.078;2023-04-01T02:48:54;98949.53;;;9.82;100.00
62124;BME280;48110;47.532;19.078;2023-04-01T02:52:05;98939.28;;;9.66;100.00
62124;BME280;48110;47.532;19.078;2023-04-01T02:55:13;98944.75;;;9.57;100.00
62124;BME280;48110;47.532;19.078;2023-04-01T02:58:24;98941.66;;;9.54;100.00
62124;BME280;48110;47.532;19.078;2023-04-01T03:01:35;98949.59;;;9.54;100.00
62124;BME280;48110;47.532;19.078;2023-04-01T03:04:45;98954.94;;;9.60;100.00
62124;BME280;48110;47.532;19.078;2023-04-01T03:07:52;98946.53;;;9.50;100.00
62124;BME280;48110;47.532;19.078;2023-04-01T03:11:01;98959.75;;;9.44;100.00
62124;BME280;48110;47.532;19.078;2023-04-01T03:14:10;98952.75;;;9.36;100.00
62124;BME280;48110;47.532;19.078;2023-04-01T03:17:16;98956.63;;;9.34;100.00
62124;BME280;48110;47.532;19.078;2023-04-01T03:20:22;98948.81;;;9.26;100.00
62124;BME280;48110;47.532;19.078;2023-04-01T03:23:33;98945.34;;;9.25;100.00
62124;BME280;48110;47.532;19.078;2023-04-01T03:26:42;98943.03;;;9.15;100.00
62124;BME280;48110;47.532;19.078;2023-04-01T03:29:49;98941.84;;;9.18;100.00
62124;BME280;48110;47.532;19.078;2023-04-01T03:32:57;98957.53;;;8.92;100.00
62124;BME280;48110;47.532;19.078;2023-04-01T03:36:07;98961.06;;;8.99;100.00
62124;BME280;48110;47.532;19.078;2023-04-01T03:39:14;98957.59;;;8.98;100.00
62124;BME280;48110;47.532;19.078;2023-04-01T03:42:27;98964.75;;;9.04;100.00
62124;BME280;48110;47.532;19.078;2023-04-01T03:45:44;98971.63;;;8.99;100.00
62124;BME280;48110;47.532;19.078;2023-04-01T03:48:57;98965.53;;;8.98;100.00
62124;BME280;48110;47.532;19.078;2023-04-01T03:52:07;98970.50;;;8.87;100.00
62124;BME280;48110;47.532;19.078;2023-04-01T03:55:18;98982.13;;;8.86;100.00
62124;BME280;48110;47.532;19.078;2023-04-01T03:58:26;98979.66;;;8.84;100.00
62124;BME280;48110;47.532;19.078;2023-04-01T04:01:40;98981.16;;;8.72;100.00
62124;BME280;48110;47.532;19.078;2023-04-01T04:04:49;98982.03;;;8.58;100.00
62124;BME280;48110;47.532;19.078;2023-04-01T04:07:56;98985.78;;;8.42;100.00
62124;BME280;48110;47.532;19.078;2023-04-01T04:11:04;98986.78;;;8.41;100.00
62124;BME280;48110;47.532;19.078;2023-04-01T04:14:11;98980.28;;;8.44;100.00
62124;BME280;48110;47.532;19.078;2023-04-01T04:17:21;98981.84;;;8.38;100.00
62124;BME280;48110;47.532;19.078;2023-04-01T04:20:27;98986.69;;;8.35;100.00
62124;BME280;48110;47.532;19.078;2023-04-01T04:23:38;98982.88;;;8.58;100.00
62124;BME280;48110;47.532;19.078;2023-04-01T04:26:44;98977.53;;;8.52;100.00
62124;BME280;48110;47.532;19.078;2023-04-01T04:29:54;98995.97;;;8.66;100.00
62124;BME280;48110;47.532;19.078;2023-04-01T04:33:01;98988.97;;;8.59;100.00
62124;BME280;48110;47.532;19.078;2023-04-01T04:36:10;98987.03;;;8.46;100.00
62124;BME280;48110;47.532;19.078;2023-04-01T04:39:17;98985.34;;;8.60;100.00
62124;BME280;48110;47.532;19.078;2023-04-01T04:42:25;98980.22;;;8.58;100.00
62124;BME280;48110;47.532;19.078;2023-04-01T04:45:34;98981.69;;;8.61;100.00
62124;BME280;48110;47.532;19.078;2023-04-01T04:48:42;98979.22;;;8.59;100.00
62124;BME280;48110;47.532;19.078;2023-04-01T04:51:51;98977.25;;;8.68;100.00
62124;BME280;48110;47.532;19.078;2023-04-01T04:54:59;98971.87;;;8.76;100.00
62124;BME280;48110;47.532;19.078;2023-04-01T04:58:10;98975.38;;;8.83;100.00
62124;BME280;48110;47.532;19.078;2023-04-01T05:01:19;98968.56;;;8.95;100.00
62124;BME280;48110;47.532;19.078;2023-04-01T05:04:26;98973.47;;;8.98;100.00
62124;BME280;48110;47.532;19.078;2023-04-01T05:07:36;98973.72;;;9.03;100.00
62124;BME280;48110;47.532;19.078;2023-04-01T05:10:45;98973.75;;;9.10;100.00
62124;BME280;48110;47.532;19.078;2023-04-01T05:13:53;98967.66;;;9.09;100.00
62124;BME280;48110;47.532;19.078;2023-04-01T05:16:59;98982.13;;;9.13;100.00
62124;BME280;48110;47.532;19.078;2023-04-01T05:20:11;98981.56;;;9.25;100.00
62124;BME280;48110;47.532;19.078;2023-04-01T05:23:21;98975.38;;;9.39;100.00
62124;BME280;48110;47.532;19.078;2023-04-01T05:26:29;98979.06;;;9.44;100.00
62124;BME280;48110;47.532;19.078;2023-04-01T05:29:38;98975.47;;;9.52;100.00
62124;BME280;48110;47.532;19.078;2023-04-01T05:32:48;98985.88;;;9.60;100.00
62124;BME280;48110;47.532;19.078;2023-04-01T05:35:54;98986.16;;;9.72;100.00
62124;BME280;48110;47.532;19.078;2023-04-01T05:39:04;98995.09;;;9.71;100.00
62124;BME280;48110;47.532;19.078;2023-04-01T05:42:13;98989.84;;;9.77;100.00
62124;BME280;48110;47.532;19.078;2023-04-01T05:45:20;98990.91;;;9.89;100.00
62124;BME280;48110;47.532;19.078;2023-04-01T05:48:30;98988.53;;;10.01;100.00
62124;BME280;48110;47.532;19.078;2023-04-01T05:51:39;98995.87;;;10.12;100.00
62124;BME280;48110;47.532;19.078;2023-04-01T05:54:47;99001.47;;;10.24;100.00
62124;BME280;48110;47.532;19.078;2023-04-01T05:57:54;98994.56;;;10.29;100.00
62124;BME280;48110;47.532;19.078;2023-04-01T06:01:07;99003.56;;;10.35;100.00
62124;BME280;48110;47.532;19.078;2023-04-01T06:04:20;99000.53;;;10.44;100.00
62124;BME280;48110;47.532;19.078;2023-04-01T06:07:27;98996.47;;;10.55;100.00
62124;BME280;48110;47.532;19.078;2023-04-01T06:17:02;99006.91;;;10.89;100.00
62124;BME280;48110;47.532;19.078;2023-04-01T06:20:23;99002.41;;;10.90;100.00
62124;BME280;48110;47.532;19.078;2023-04-01T06:33:16;98993.84;;;10.68;100.00
62124;BME280;48110;47.532;19.078;2023-04-01T06:43:23;99008.94;;;11.14;100.00
62124;BME280;48110;47.532;19.078;2023-04-01T06:50:12;99008.53;;;11.50;100.00
62124;BME280;48110;47.532;19.078;2023-04-01T06:53:27;99006.88;;;11.55;100.00
62124;BME280;48110;47.532;19.078;2023-04-01T06:56:49;99012.16;;;11.62;100.00
62124;BME280;48110;47.532;19.078;2023-04-01T07:00:02;99013.78;;;11.69;100.00
62124;BME280;48110;47.532;19.078;2023-04-01T07:03:19;99015.00;;;11.87;100.00
62124;BME280;48110;47.532;19.078;2023-04-01T07:06:32;99008.03;;;11.99;100.00
62124;BME280;48110;47.532;19.078;2023-04-01T07:09:48;99011.44;;;12.12;100.00
62124;BME280;48110;47.532;19.078;2023-04-01T07:13:02;99008.94;;;12.24;100.00
62124;BME280;48110;47.532;19.078;2023-04-01T07:16:25;99016.78;;;12.50;100.00
62124;BME280;48110;47.532;19.078;2023-04-01T07:19:38;99025.22;;;13.35;88.77
62124;BME280;48110;47.532;19.078;2023-04-01T07:22:51;99011.78;;;13.48;86.76
62124;BME280;48110;47.532;19.078;2023-04-01T07:26:12;99014.03;;;13.69;86.55
62124;BME280;48110;47.532;19.078;2023-04-01T07:29:31;99005.66;;;13.41;86.13
62124;BME280;48110;47.532;19.078;2023-04-01T07:32:40;99018.59;;;13.80;86.43
62124;BME280;48110;47.532;19.078;2023-04-01T07:35:54;99020.47;;;14.16;77.45
62124;BME280;48110;47.532;19.078;2023-04-01T07:45:42;99026.53;;;15.13;73.61
62124;BME280;48110;47.532;19.078;2023-04-01T08:24:46;99033.13;;;14.03;78.60
62124;BME280;48110;47.532;19.078;2023-04-01T08:28:03;99033.06;;;14.27;76.19
62124;BME280;48110;47.532;19.078;2023-04-01T08:34:32;99042.16;;;14.86;70.53
62124;BME280;48110;47.532;19.078;2023-04-01T08:37:43;99033.63;;;14.77;69.84
62124;BME280;48110;47.532;19.078;2023-04-01T08:40:58;99034.78;;;14.82;68.60
62124;BME280;48110;47.532;19.078;2023-04-01T09:29:51;99029.06;;;14.37;75.26
62124;BME280;48110;47.532;19.078;2023-04-01T09:39:52;99023.97;;;13.56;77.63
62124;BME280;48110;47.532;19.078;2023-04-01T10:19:02;99033.75;;;13.62;80.51
62124;BME280;48110;47.532;19.078;2023-04-01T10:26:05;99043.41;;;13.38;83.39
62124;BME280;48110;47.532;19.078;2023-04-01T10:39:32;99035.91;;;12.66;90.63
62124;BME280;48110;47.532;19.078;2023-04-01T11:06:43;99041.00;;;13.98;78.58
62124;BME280;48110;47.532;19.078;2023-04-01T11:26:51;99036.38;;;18.24;54.54
62124;BME280;48110;47.532;19.078;2023-04-01T11:39:41;99034.59;;;13.37;74.83
62124;BME280;48110;47.532;19.078;2023-04-01T11:43:00;99030.78;;;13.02;78.94
62124;BME280;48110;47.532;19.078;2023-04-01T11:46:23;99028.31;;;13.00;79.58
62124;BME280;48110;47.532;19.078;2023-04-01T11:49:44;99041.13;;;12.85;79.88
62124;BME280;48110;47.532;19.078;2023-04-01T11:56:44;99047.75;;;12.70;79.87
62124;BME280;48110;47.532;19.078;2023-04-01T11:59:59;99045.25;;;12.81;80.73
62124;BME280;48110;47.532;19.078;2023-04-01T12:09:39;99037.72;;;13.03;79.49
62124;BME280;48110;47.532;19.078;2023-04-01T12:13:04;99034.94;;;13.47;76.25
62124;BME280;48110;47.532;19.078;2023-04-01T12:22:47;99032.44;;;14.25;66.42
62124;BME280;48110;47.532;19.078;2023-04-01T12:26:09;99040.09;;;14.22;68.03
62124;BME280;48110;47.532;19.078;2023-04-01T12:55:42;99047.31;;;19.15;51.17
62124;BME280;48110;47.532;19.078;2023-04-01T13:08:56;99020.88;;;17.88;53.00
62124;BME280;48110;47.532;19.078;2023-04-01T13:28:53;99028.78;;;23.14;37.39
62124;BME280;48110;47.532;19.078;2023-04-01T13:38:31;99020.53;;;21.62;40.02
62124;BME280;48110;47.532;19.078;2023-04-01T13:45:10;99029.75;;;22.45;37.29
62124;BME280;48110;47.532;19.078;2023-04-01T14:01:26;99025.31;;;23.14;36.83
62124;BME280;48110;47.532;19.078;2023-04-01T14:14:52;99034.16;;;23.19;35.79
62124;BME280;48110;47.532;19.078;2023-04-01T14:21:41;99035.16;;;18.80;45.73
62124;BME280;48110;47.532;19.078;2023-04-01T14:41:48;99014.91;;;16.97;49.53
62124;BME280;48110;47.532;19.078;2023-04-01T14:48:54;99007.44;;;16.14;52.26
62124;BME280;48110;47.532;19.078;2023-04-01T14:51:36;99014.16;;;16.85;51.07
62124;BME280;48110;47.532;19.078;2023-04-01T14:54:46;99011.34;;;17.08;49.14
62124;BME280;48110;47.532;19.078;2023-04-01T14:57:58;99016.25;;;16.26;51.68
62124;BME280;48110;47.532;19.078;2023-04-01T15:04:37;99013.50;;;15.16;56.83
62124;BME280;48110;47.532;19.078;2023-04-01T15:21:13;99022.03;;;14.42;64.04
62124;BME280;48110;47.532;19.078;2023-04-01T15:24:26;99019.72;;;14.57;63.41
62124;BME280;48110;47.532;19.078;2023-04-01T15:27:49;99015.31;;;14.51;63.04
62124;BME280;48110;47.532;19.078;2023-04-01T15:34:16;99016.44;;;14.44;60.87
62124;BME280;48110;47.532;19.078;2023-04-01T15:37:37;99029.22;;;14.71;60.41
62124;BME280;48110;47.532;19.078;2023-04-01T15:40:58;99035.59;;;14.82;61.07
62124;BME280;48110;47.532;19.078;2023-04-01T15:47:41;99025.63;;;14.77;57.64
62124;BME280;48110;47.532;19.078;2023-04-01T15:50:54;99029.66;;;14.68;57.34
62124;BME280;48110;47.532;19.078;2023-04-01T15:54:16;99041.22;;;14.62;57.99
62124;BME280;48110;47.532;19.078;2023-04-01T15:57:47;99031.47;;;14.56;56.72
62124;BME280;48110;47.532;19.078;2023-04-01T16:04:44;99039.50;;;14.68;57.27
62124;BME280;48110;47.532;19.078;2023-04-01T16:07:59;99038.47;;;14.69;54.43
62124;BME280;48110;47.532;19.078;2023-04-01T16:11:23;99043.34;;;14.72;54.66
62124;BME280;48110;47.532;19.078;2023-04-01T16:48:45;99072.56;;;14.37;56.87
62124;BME280;48110;47.532;19.078;2023-04-01T16:52:04;99066.59;;;14.35;58.39
62124;BME280;48110;47.532;19.078;2023-04-01T16:55:20;99068.63;;;14.21;59.67
62124;BME280;48110;47.532;19.078;2023-04-01T16:58:41;99073.00;;;13.98;61.90
62124;BME280;48110;47.532;19.078;2023-04-01T17:05:04;99077.06;;;13.57;63.34
62124;BME280;48110;47.532;19.078;2023-04-01T17:11:24;99088.31;;;13.34;66.05
62124;BME280;48110;47.532;19.078;2023-04-01T17:14:39;99082.47;;;13.26;66.98
62124;BME280;48110;47.532;19.078;2023-04-01T17:34:37;99102.25;;;12.67;74.14
62124;BME280;48110;47.532;19.078;2023-04-01T17:38:05;99112.25;;;12.65;74.52
62124;BME280;48110;47.532;19.078;2023-04-01T17:54:35;99117.16;;;12.17;77.60
62124;BME280;48110;47.532;19.078;2023-04-01T18:04:06;99135.00;;;11.90;80.60
62124;BME280;48110;47.532;19.078;2023-04-01T18:20:31;99149.91;;;11.98;80.38
62124;BME280;48110;47.532;19.078;2023-04-01T18:23:47;99156.25;;;11.97;79.60
62124;BME280;48110;47.532;19.078;2023-04-01T18:30:18;99162.41;;;11.91;78.72
62124;BME280;48110;47.532;19.078;2023-04-01T18:37:02;99173.19;;;11.96;78.11
62124;BME280;48110;47.532;19.078;2023-04-01T18:43:32;99178.13;;;11.72;81.58
62124;BME280;48110;47.532;19.078;2023-04-01T18:50:11;99183.59;;;11.58;85.47
62124;BME280;48110;47.532;19.078;2023-04-01T18:56:47;99184.81;;;11.36;88.39
62124;BME280;48110;47.532;19.078;2023-04-01T19:00:02;99192.69;;;11.09;88.95
62124;BME280;48110;47.532;19.078;2023-04-01T19:06:26;99186.78;;;11.14;93.08
62124;BME280;48110;47.532;19.078;2023-04-01T19:09:45;99191.84;;;10.89;94.67
62124;BME280;48110;47.532;19.078;2023-04-01T19:19:49;99195.50;;;10.88;92.51
62124;BME280;48110;47.532;19.078;2023-04-01T19:26:32;99191.72;;;11.17;85.95
62124;BME280;48110;47.532;19.078;2023-04-01T19:29:52;99195.97;;;11.11;89.89
62124;BME280;48110;47.532;19.078;2023-04-01T19:36:39;99196.97;;;11.04;87.19
62124;BME280;48110;47.532;19.078;2023-04-01T19:40:07;99207.53;;;10.84;90.82
62124;BME280;48110;47.532;19.078;2023-04-01T19:43:35;99210.00;;;10.92;92.83
62124;BME280;48110;47.532;19.078;2023-04-01T19:50:14;99213.09;;;11.09;89.24
62124;BME280;48110;47.532;19.078;2023-04-01T19:53:31;99214.06;;;10.88;90.62
62124;BME280;48110;47.532;19.078;2023-04-01T19:56:47;99215.09;;;10.87;93.96
62124;BME280;48110;47.532;19.078;2023-04-01T20:16:19;99219.12;;;10.42;100.00
62124;BME280;48110;47.532;19.078;2023-04-01T20:19:28;99223.37;;;10.36;100.00
62124;BME280;48110;47.532;19.078;2023-04-01T20:25:53;99221.28;;;10.25;100.00
62124;BME280;48110;47.532;19.078;2023-04-01T20:33:08;99218.63;;;10.04;100.00
62124;BME280;48110;47.532;19.078;2023-04-01T20:35:49;99223.16;;;9.82;100.00
62124;BME280;48110;47.532;19.078;2023-04-01T20:49:49;99228.66;;;9.38;100.00
62124;BME280;48110;47.532;19.078;2023-04-01T20:52:42;99223.66;;;9.29;100.00
62124;BME280;48110;47.532;19.078;2023-04-01T21:11:43;99246.09;;;8.97;100.00
62124;BME280;48110;47.532;19.078;2023-04-01T21:21:37;99251.63;;;9.16;100.00
62124;BME280;48110;47.532;19.078;2023-04-01T22:20:54;99277.19;;;10.09;100.00
62124;BME280;48110;47.532;19.078;2023-04-01T22:24:06;99277.63;;;10.13;100.00
62124;BME280;48110;47.532;19.078;2023-04-01T22:27:21;99285.03;;;10.17;100.00
62124;BME280;48110;47.532;19.078;2023-04-01T22:30:42;99282.31;;;10.11;100.00
62124;BME280;48110;47.532;19.078;2023-04-01T22:34:00;99289.31;;;9.97;100.00
62124;BME280;48110;47.532;19.078;2023-04-01T22:43:44;99295.47;;;9.83;100.00
62124;BME280;48110;47.532;19.078;2023-04-01T22:46:58;99303.50;;;9.68;100.00
62124;BME280;48110;47.532;19.078;2023-04-01T22:50:27;99300.53;;;9.56;100.00
62124;BME280;48110;47.532;19.078;2023-04-01T22:57:03;99317.28;;;9.42;100.00
62124;BME280;48110;47.532;19.078;2023-04-01T23:00:26;99323.59;;;9.27;100.00
62124;BME280;48110;47.532;19.078;2023-04-01T23:03:35;99319.78;;;9.14;100.00
62124;BME280;48110;47.532;19.078;2023-04-01T23:06:44;99326.44;;;9.10;100.00
62124;BME280;48110;47.532;19.078;2023-04-01T23:09:53;99328.28;;;9.10;100.00
62124;BME280;48110;47.532;19.078;2023-04-01T23:13:01;99340.22;;;9.06;100.00
62124;BME280;48110;47.532;19.078;2023-04-01T23:16:08;99330.28;;;9.08;100.00
62124;BME280;48110;47.532;19.078;2023-04-01T23:19:19;99340.31;;;8.98;100.00
62124;BME280;48110;47.532;19.078;2023-04-01T23:25:44;99340.03;;;8.93;100.00
62124;BME280;48110;47.532;19.078;2023-04-01T23:28:54;99342.84;;;8.91;100.00
62124;BME280;48110;47.532;19.078;2023-04-01T23:32:02;99348.53;;;8.88;100.00
62124;BME280;48110;47.532;19.078;2023-04-01T23:35:11;99343.22;;;8.88;100.00
62124;BME280;48110;47.532;19.078;2023-04-01T23:38:24;99342.69;;;8.93;100.00
62124;BME280;48110;47.532;19.078;2023-04-01T23:41:30;99344.94;;;8.96;100.00
62124;BME280;48110;47.532;19.078;2023-04-01T23:44:37;99337.50;;;8.99;100.00
62124;BME280;48110;47.532;19.078;2023-04-01T23:47:44;99344.16;;;8.95;100.00
62124;BME280;48110;47.532;19.078;2023-04-01T23:50:53;99348.16;;;8.91;100.00
62124;BME280;48110;47.532;19.078;2023-04-01T23:54:05;99349.25;;;8.82;100.00
62124;BME280;48110;47.532;19.078;2023-04-01T23:57:15;99352.09;;;8.95;100.00
